Time;durP1;ratioP1;P1;durP2;ratioP2;P2;SDS_P1;SDS_P2;PMS_P1;PMS_P2;Temp;Humidity;BMP_temperature;BMP_pressure;BME280_temperature;BME280_humidity;BME280_pressure;Samples;Min_cycle;Max_cycle;Signal;HPM_P1;HPM_P2
2023/11/27 00:01:12;;;;;;;4.93;1.85;;;-1.30;99.90;;;;;;4999613;28;20026;-77
2023/11/27 00:03:38;;;;;;;4.13;1.63;;;-1.30;99.90;;;;;;4999724;28;20500;-77
2023/11/27 00:06:06;;;;;;;2.17;1.42;;;-1.30;99.90;;;;;;4998118;28;20030;-77
2023/11/27 00:08:32;;;;;;;3.25;1.50;;;-1.40;99.90;;;;;;4998431;28;20086;-77
2023/11/27 00:10:58;;;;;;;4.03;1.40;;;-1.40;99.90;;;;;;4999758;28;20023;-77
2023/11/27 00:13:23;;;;;;;7.38;1.58;;;-1.40;99.90;;;;;;4998382;28;20580;-77
2023/11/27 00:15:49;;;;;;;2.67;1.65;;;-1.40;99.90;;;;;;4999337;28;20030;-77
2023/11/27 00:18:15;;;;;;;4.43;2.35;;;-1.40;99.90;;;;;;4997795;28;20513;-77
2023/11/27 00:20:40;;;;;;;6.50;2.03;;;-1.50;99.90;;;;;;4999561;28;20022;-77
2023/11/27 00:23:06;;;;;;;6.65;3.03;;;-1.50;99.90;;;;;;4998363;28;20058;-77
2023/11/27 00:25:31;;;;;;;5.95;2.15;;;-1.50;99.90;;;;;;4997856;28;20080;-77
2023/11/27 00:27:57;;;;;;;3.95;1.92;;;-1.50;99.90;;;;;;4999761;28;20481;-77
2023/11/27 00:30:23;;;;;;;2.22;1.75;;;-1.20;99.90;;;;;;4998160;28;20057;-77
2023/11/27 00:32:49;;;;;;;2.53;1.75;;;-1.60;99.90;;;;;;5004026;28;20026;-77
2023/11/27 00:35:14;;;;;;;2.88;2.38;;;-1.60;99.90;;;;;;5010091;28;20027;-77
2023/11/27 00:37:40;;;;;;;4.32;1.33;;;-1.70;99.90;;;;;;5009749;28;20037;-77
2023/11/27 00:40:06;;;;;;;3.78;1.65;;;-1.70;99.90;;;;;;5012301;28;20033;-78
2023/11/27 00:42:32;;;;;;;4.43;2.33;;;-1.60;99.90;;;;;;5011917;28;20037;-78
2023/11/27 00:44:58;;;;;;;6.72;2.45;;;-1.70;99.90;;;;;;5012665;28;20022;-77
2023/11/27 00:47:23;;;;;;;6.25;1.95;;;-1.70;99.90;;;;;;5012634;28;20037;-77
2023/11/27 00:49:49;;;;;;;5.53;3.03;;;-1.70;99.90;;;;;;5013147;28;20045;-77
2023/11/27 00:52:15;;;;;;;3.60;2.05;;;-1.70;99.90;;;;;;5013509;28;20030;-77
2023/11/27 00:54:40;;;;;;;3.90;2.13;;;-1.70;99.90;;;;;;5008513;28;20042;-77
2023/11/27 00:57:06;;;;;;;7.05;2.10;;;-1.70;99.90;;;;;;4999323;28;20030;-77
2023/11/27 00:59:33;;;;;;;3.97;2.00;;;-1.70;99.90;;;;;;4996103;28;20026;-77
2023/11/27 01:01:59;;;;;;;3.75;2.58;;;-1.80;99.90;;;;;;4996154;28;20101;-77
2023/11/27 01:04:24;;;;;;;6.18;1.92;;;-1.80;99.90;;;;;;4996414;28;20485;-77
2023/11/27 01:06:51;;;;;;;8.95;3.53;;;-1.20;99.90;;;;;;4995714;28;20022;-77
2023/11/27 01:09:18;;;;;;;3.15;1.95;;;-1.70;99.90;;;;;;4994747;28;20489;-77
2023/11/27 01:11:43;;;;;;;5.10;2.45;;;-1.70;99.90;;;;;;4994588;28;20038;-77
2023/11/27 01:14:09;;;;;;;3.78;2.75;;;-1.70;99.90;;;;;;4995424;28;20026;-77
2023/11/27 01:16:34;;;;;;;5.53;2.28;;;-1.70;99.90;;;;;;4995582;28;20393;-77
2023/11/27 01:19:00;;;;;;;3.33;2.00;;;-1.70;99.90;;;;;;4995510;28;20054;-77
2023/11/27 01:21:26;;;;;;;6.60;2.60;;;-1.70;99.90;;;;;;4994450;28;20109;-77
2023/11/27 01:23:52;;;;;;;4.15;2.83;;;-1.80;99.90;;;;;;4995856;28;20027;-77
2023/11/27 01:26:17;;;;;;;6.22;2.15;;;-1.70;99.90;;;;;;4995444;28;20030;-77
2023/11/27 01:28:43;;;;;;;5.70;2.40;;;-1.70;99.90;;;;;;4995449;28;20018;-78
2023/11/27 01:31:08;;;;;;;3.40;2.40;;;-1.70;99.90;;;;;;4994013;28;20022;-78
2023/11/27 01:33:34;;;;;;;5.40;2.40;;;-1.80;99.90;;;;;;4995255;28;20392;-78
2023/11/27 01:35:59;;;;;;;3.47;2.20;;;-1.70;99.90;;;;;;4993700;28;20077;-78
2023/11/27 01:38:25;;;;;;;6.43;2.55;;;-1.80;99.90;;;;;;4993709;28;20030;-78
2023/11/27 01:40:51;;;;;;;4.90;2.22;;;-1.80;99.90;;;;;;4993994;28;20022;-78
2023/11/27 01:43:16;;;;;;;4.57;2.28;;;-1.70;99.90;;;;;;4993895;28;20026;-78
2023/11/27 01:45:42;;;;;;;2.40;1.85;;;-1.70;99.90;;;;;;4994760;28;20022;-78
2023/11/27 01:48:09;;;;;;;6.35;2.45;;;-1.70;99.90;;;;;;4993769;28;20034;-78
2023/11/27 01:50:36;;;;;;;5.28;2.42;;;-1.70;99.90;;;;;;4993997;28;20390;-77
2023/11/27 01:53:01;;;;;;;4.35;2.17;;;-1.80;99.90;;;;;;4993760;28;20080;-78
2023/11/27 01:55:29;;;;;;;4.13;1.73;;;-1.80;99.90;;;;;;4994812;28;20085;-77
2023/11/27 01:57:56;;;;;;;3.50;1.63;;;-1.80;99.90;;;;;;4994792;28;20041;-78
2023/11/27 02:00:22;;;;;;;3.63;1.92;;;-1.80;99.90;;;;;;4993639;28;20023;-78
2023/11/27 02:02:49;;;;;;;6.97;2.47;;;-1.80;99.90;;;;;;4993645;28;20053;-78
2023/11/27 02:05:16;;;;;;;5.18;2.53;;;-1.80;99.90;;;;;;4993120;28;20511;-78
2023/11/27 02:07:43;;;;;;;4.85;2.30;;;-1.70;99.90;;;;;;4996947;28;20037;-78
2023/11/27 02:10:09;;;;;;;2.85;2.10;;;-1.70;99.90;;;;;;4996477;28;20397;-78
2023/11/27 02:12:35;;;;;;;5.07;2.50;;;-1.70;99.90;;;;;;5004584;28;20030;-79
2023/11/27 02:15:00;;;;;;;4.00;2.50;;;-1.70;99.90;;;;;;5007881;28;20058;-78
2023/11/27 02:17:26;;;;;;;4.03;2.30;;;-1.70;99.90;;;;;;5006651;28;20027;-78
2023/11/27 02:19:52;;;;;;;3.55;1.70;;;-1.70;99.90;;;;;;5007025;28;20868;-78
2023/11/27 02:22:17;;;;;;;5.63;2.10;;;-1.60;99.90;;;;;;5011816;28;20030;-78
2023/11/27 02:24:43;;;;;;;3.65;1.88;;;-1.60;99.90;;;;;;5010637;28;20030;-79
2023/11/27 02:27:09;;;;;;;7.25;2.30;;;-1.60;99.90;;;;;;5011969;28;20026;-78
2023/11/27 02:29:34;;;;;;;2.30;1.98;;;-1.60;99.90;;;;;;5010081;28;20045;-79
2023/11/27 02:32:03;;;;;;;4.07;2.05;;;-1.70;99.90;;;;;;5008281;28;20444;-79
2023/11/27 02:34:29;;;;;;;3.47;1.80;;;-1.70;99.90;;;;;;5008785;28;20027;-78
2023/11/27 02:36:55;;;;;;;3.63;1.55;;;-1.70;99.90;;;;;;5008850;28;20044;-78
2023/11/27 02:39:21;;;;;;;7.00;2.63;;;-1.80;99.90;;;;;;5008031;28;20114;-78
2023/11/27 02:41:47;;;;;;;6.25;2.17;;;-1.70;99.90;;;;;;5009407;28;20033;-78
2023/11/27 02:44:14;;;;;;;5.55;2.25;;;-1.80;99.90;;;;;;5010381;28;20523;-78
2023/11/27 02:46:41;;;;;;;4.28;2.28;;;-1.70;99.90;;;;;;5008691;28;20027;-78
2023/11/27 02:49:07;;;;;;;7.90;2.13;;;-1.40;99.90;;;;;;5000257;28;20026;-78
2023/11/27 02:51:41;;;;;;;2.55;1.98;;;-1.70;99.90;;;;;;4994098;28;20519;-78
2023/11/27 02:54:07;;;;;;;3.67;2.03;;;-1.60;99.90;;;;;;4992531;28;20026;-79
2023/11/27 02:56:32;;;;;;;2.78;1.98;;;-1.60;99.90;;;;;;5064720;23;20051;-75
2023/11/27 02:58:58;;;;;;;4.38;1.83;;;-1.60;99.90;;;;;;5055887;28;20025;-77
2023/11/27 03:01:26;;;;;;;3.08;1.88;;;-1.50;99.90;;;;;;5055982;28;20021;-77
2023/11/27 03:03:52;;;;;;;4.47;1.77;;;-1.60;99.90;;;;;;5054887;28;20112;-78
2023/11/27 03:06:18;;;;;;;4.38;1.77;;;-1.50;99.90;;;;;;5038374;28;20091;-77
2023/11/27 03:08:43;;;;;;;2.63;1.48;;;-1.50;99.90;;;;;;5036182;28;20455;-78
2023/11/27 03:11:11;;;;;;;2.00;1.60;;;-1.40;99.90;;;;;;5036531;28;20396;-78
2023/11/27 03:13:37;;;;;;;7.13;1.50;;;-1.40;99.90;;;;;;5036416;28;20462;-77
2023/11/27 03:16:03;;;;;;;3.10;1.88;;;-1.40;99.90;;;;;;5034897;28;20108;-76
2023/11/27 03:18:29;;;;;;;4.85;2.08;;;-1.30;99.90;;;;;;5036364;28;20034;-77
2023/11/27 03:20:54;;;;;;;2.20;1.73;;;-1.30;99.90;;;;;;5035672;28;20025;-78
2023/11/27 03:23:20;;;;;;;2.97;1.23;;;-1.30;99.90;;;;;;5035955;28;20028;-77
2023/11/27 03:25:45;;;;;;;7.15;1.92;;;-1.40;99.90;;;;;;5035531;28;20021;-77
2023/11/27 03:28:11;;;;;;;4.32;2.08;;;-1.40;99.90;;;;;;5034016;28;20026;-77
2023/11/27 03:30:37;;;;;;;3.65;1.52;;;-1.50;99.90;;;;;;5034766;28;20557;-78
2023/11/27 03:33:02;;;;;;;3.38;1.50;;;-1.40;99.90;;;;;;5035865;28;20557;-77
2023/11/27 03:35:28;;;;;;;4.50;2.03;;;-1.40;99.90;;;;;;5034367;28;20025;-76
2023/11/27 03:37:53;;;;;;;6.32;2.03;;;-1.30;99.90;;;;;;5034279;28;20036;-75
2023/11/27 03:40:19;;;;;;;1.90;1.30;;;-1.30;99.90;;;;;;5034586;28;20467;-76
2023/11/27 03:42:45;;;;;;;2.33;1.55;;;-1.30;99.90;;;;;;5033862;28;20108;-77
2023/11/27 03:45:10;;;;;;;2.38;1.48;;;-1.30;99.90;;;;;;5033886;28;20444;-77
2023/11/27 03:47:36;;;;;;;7.13;1.75;;;-1.30;99.90;;;;;;5034776;28;20036;-76
2023/11/27 03:50:01;;;;;;;4.07;1.90;;;-1.20;99.90;;;;;;5035457;28;20069;-76
2023/11/27 03:52:30;;;;;;;3.20;1.73;;;-1.20;99.90;;;;;;5035424;28;20024;-77
2023/11/27 03:54:55;;;;;;;4.47;2.28;;;-1.20;99.90;;;;;;5035297;28;20061;-78
2023/11/27 03:57:21;;;;;;;3.47;1.77;;;-1.20;99.90;;;;;;5034046;28;20033;-76
2023/11/27 03:59:48;;;;;;;3.17;2.28;;;-1.20;99.90;;;;;;5035433;28;20025;-77
2023/11/27 04:02:13;;;;;;;4.25;1.75;;;-1.20;99.90;;;;;;5035789;28;20026;-77
2023/11/27 04:04:39;;;;;;;2.38;1.67;;;-1.20;99.90;;;;;;5033818;28;20400;-76
2023/11/27 04:07:05;;;;;;;2.33;1.30;;;-1.20;99.90;;;;;;5034630;28;20061;-76
2023/11/27 04:09:31;;;;;;;2.70;1.55;;;-1.20;99.90;;;;;;5034030;28;20032;-77
2023/11/27 04:11:57;;;;;;;2.63;1.88;;;-1.20;99.90;;;;;;5035586;28;20025;-77
2023/11/27 04:14:23;;;;;;;1.20;1.10;;;-1.20;99.90;;;;;;5035199;28;20031;-76
2023/11/27 04:16:49;;;;;;;4.97;2.13;;;-1.20;99.90;;;;;;5035317;28;20391;-77
2023/11/27 04:19:14;;;;;;;3.10;1.35;;;-1.20;99.90;;;;;;5034867;28;20021;-78
2023/11/27 04:21:40;;;;;;;3.80;1.75;;;-1.20;99.90;;;;;;5035097;28;20022;-77
2023/11/27 04:24:06;;;;;;;2.88;1.27;;;-1.10;99.90;;;;;;5034997;28;20030;-77
2023/11/27 04:26:32;;;;;;;3.92;1.75;;;-1.10;99.90;;;;;;5033984;28;20036;-79
2023/11/27 04:28:58;;;;;;;2.05;1.67;;;-1.10;99.90;;;;;;5036915;28;20029;-77
2023/11/27 04:31:24;;;;;;;3.47;1.42;;;-1.10;99.90;;;;;;5038810;28;20029;-75
2023/11/27 04:33:50;;;;;;;4.18;1.50;;;-1.10;99.90;;;;;;5037436;28;20045;-78
2023/11/27 04:36:18;;;;;;;2.80;1.85;;;-1.00;99.90;;;;;;5038002;28;20332;-77
2023/11/27 04:38:44;;;;;;;1.38;1.25;;;-1.00;99.90;;;;;;5038686;28;20024;-76
2023/11/27 04:41:10;;;;;;;2.30;1.30;;;-1.10;99.90;;;;;;5038301;28;20030;-76
2023/11/27 04:43:36;;;;;;;2.70;1.30;;;-1.10;99.90;;;;;;5038225;28;20033;-77
2023/11/27 04:46:01;;;;;;;3.20;1.52;;;-1.10;99.90;;;;;;5036760;28;20022;-77
2023/11/27 04:48:27;;;;;;;3.83;1.10;;;-1.00;99.90;;;;;;5038344;28;20036;-76
2023/11/27 04:50:53;;;;;;;5.18;2.13;;;-1.00;99.90;;;;;;5037762;28;20089;-76
2023/11/27 04:53:18;;;;;;;4.25;2.03;;;-1.00;99.90;;;;;;5036201;28;20033;-77
2023/11/27 04:55:44;;;;;;;3.00;1.60;;;-1.00;99.90;;;;;;5037219;28;20283;-77
2023/11/27 04:58:09;;;;;;;3.67;1.38;;;-0.90;99.90;;;;;;5037644;28;20026;-78
2023/11/27 05:00:35;;;;;;;3.30;2.08;;;-0.90;99.90;;;;;;5036262;28;20022;-77
2023/11/27 05:03:02;;;;;;;5.40;2.25;;;-0.90;99.90;;;;;;5038013;28;20471;-78
2023/11/27 05:05:28;;;;;;;2.10;1.77;;;-0.90;99.90;;;;;;5037539;28;20022;-77
2023/11/27 05:07:54;;;;;;;2.75;1.00;;;-0.70;99.90;;;;;;5036888;28;20026;-79
2023/11/27 05:10:19;;;;;;;1.13;0.93;;;-0.90;99.90;;;;;;5037850;28;20032;-77
2023/11/27 05:12:45;;;;;;;1.63;1.42;;;-0.90;99.90;;;;;;5037263;28;20396;-76
2023/11/27 05:15:11;;;;;;;4.10;1.70;;;-0.90;99.90;;;;;;5036979;28;20030;-77
2023/11/27 05:17:37;;;;;;;1.60;1.38;;;-0.90;99.90;;;;;;5036080;28;20033;-77
2023/11/27 05:20:03;;;;;;;2.25;1.27;;;-0.80;99.90;;;;;;5037751;28;20599;-77
2023/11/27 05:22:30;;;;;;;1.73;1.33;;;-0.90;99.90;;;;;;5037561;28;20022;-76
2023/11/27 05:24:55;;;;;;;7.82;2.13;;;-0.90;99.90;;;;;;5037085;28;20029;-76
2023/11/27 05:27:23;;;;;;;2.33;1.70;;;-0.80;99.90;;;;;;5038027;28;20030;-76
2023/11/27 05:29:49;;;;;;;2.30;1.23;;;-0.80;99.90;;;;;;5037833;28;20022;-77
2023/11/27 05:32:16;;;;;;;2.38;1.65;;;-0.80;99.90;;;;;;5037227;28;20404;-77
2023/11/27 05:34:42;;;;;;;6.15;2.05;;;-0.80;99.90;;;;;;5035897;28;20053;-77
2023/11/27 05:37:08;;;;;;;2.80;1.30;;;-0.40;99.90;;;;;;5037260;28;20057;-77
2023/11/27 05:39:35;;;;;;;1.70;1.30;;;-0.80;99.90;;;;;;5036581;28;20022;-78
2023/11/27 05:42:02;;;;;;;2.70;1.67;;;-0.90;99.90;;;;;;5037628;28;20590;-77
2023/11/27 05:44:28;;;;;;;3.25;2.05;;;-0.80;99.90;;;;;;5035863;28;20093;-77
2023/11/27 05:46:54;;;;;;;4.20;1.77;;;-0.80;99.90;;;;;;5037250;28;20056;-79
2023/11/27 05:49:20;;;;;;;2.47;1.13;;;-0.70;99.90;;;;;;5037154;28;20033;-76
2023/11/27 05:51:46;;;;;;;2.83;1.55;;;-0.70;99.90;;;;;;5036935;28;20029;-76
2023/11/27 05:54:12;;;;;;;4.55;1.60;;;-0.70;99.90;;;;;;5036450;28;20480;-75
2023/11/27 05:56:37;;;;;;;3.95;1.52;;;-0.70;99.90;;;;;;5036776;28;20040;-76
2023/11/27 05:59:03;;;;;;;2.47;1.63;;;-0.60;99.90;;;;;;5036884;28;20462;-76
2023/11/27 06:01:29;;;;;;;3.25;1.65;;;-0.60;99.90;;;;;;5036267;28;20032;-77
2023/11/27 06:03:55;;;;;;;2.38;1.10;;;-0.60;99.90;;;;;;5037600;28;20101;-76
2023/11/27 06:06:21;;;;;;;3.50;1.50;;;-0.60;99.90;;;;;;5036551;28;20025;-77
2023/11/27 06:08:47;;;;;;;6.25;1.52;;;-0.60;99.90;;;;;;5035485;28;20394;-77
2023/11/27 06:11:13;;;;;;;3.85;1.52;;;-0.60;99.90;;;;;;5036975;28;20036;-78
2023/11/27 06:13:41;;;;;;;2.72;1.40;;;-0.50;99.90;;;;;;5037139;28;20096;-77
2023/11/27 06:16:08;;;;;;;12.27;3.22;;;-0.50;99.90;;;;;;5034696;28;20391;-76
2023/11/27 06:18:33;;;;;;;20.88;8.48;;;-0.50;99.90;;;;;;5036378;28;20117;-77
2023/11/27 06:20:59;;;;;;;21.13;8.05;;;-0.40;99.90;;;;;;5036490;28;20499;-77
2023/11/27 06:23:25;;;;;;;21.02;7.93;;;-0.50;99.90;;;;;;5034932;28;20024;-77
2023/11/27 06:25:50;;;;;;;19.65;6.53;;;-0.50;99.90;;;;;;5034634;28;20022;-76
2023/11/27 06:28:16;;;;;;;18.92;7.88;;;-0.40;99.90;;;;;;5034320;28;20022;-76
2023/11/27 06:30:42;;;;;;;22.42;8.07;;;-0.40;99.90;;;;;;5035859;28;20026;-76
2023/11/27 06:33:08;;;;;;;12.82;6.30;;;-0.40;99.90;;;;;;5034662;28;20578;-76
2023/11/27 06:35:35;;;;;;;8.75;4.55;;;-0.40;99.90;;;;;;5035543;28;20025;-78
2023/11/27 06:38:02;;;;;;;5.50;2.83;;;1.00;99.90;;;;;;5033590;28;20049;-76
2023/11/27 06:40:28;;;;;;;10.13;2.33;;;0.70;99.90;;;;;;5034750;28;20028;-77
2023/11/27 06:42:55;;;;;;;7.20;3.25;;;0.60;99.90;;;;;;5035096;28;20100;-77
2023/11/27 06:45:21;;;;;;;7.47;2.10;;;0.40;99.90;;;;;;5038714;28;20536;-81
2023/11/27 06:47:48;;;;;;;9.43;3.30;;;0.20;99.90;;;;;;5037290;28;20067;-77
2023/11/27 06:50:13;;;;;;;6.75;3.70;;;0.20;99.90;;;;;;5033620;28;20064;-77
2023/11/27 06:52:39;;;;;;;5.57;2.85;;;0.10;99.90;;;;;;5031157;28;20029;-77
2023/11/27 06:55:05;;;;;;;5.72;2.38;;;0.10;99.90;;;;;;5034331;28;20041;-76
2023/11/27 06:57:30;;;;;;;3.45;2.38;;;0.10;99.90;;;;;;5035492;28;20492;-75
2023/11/27 06:59:56;;;;;;;3.72;1.92;;;0.00;99.90;;;;;;5036078;28;20029;-78
2023/11/27 07:02:22;;;;;;;2.92;1.88;;;0.00;99.90;;;;;;5036267;28;20021;-77
2023/11/27 07:04:47;;;;;;;2.75;1.55;;;0.00;99.90;;;;;;5035041;28;20471;-78
2023/11/27 07:07:13;;;;;;;1.75;1.33;;;0.10;99.90;;;;;;5036185;28;20056;-76
2023/11/27 07:09:39;;;;;;;3.80;1.45;;;0.10;99.90;;;;;;5051537;28;20056;-75
2023/11/27 07:12:04;;;;;;;3.60;2.13;;;0.00;99.90;;;;;;5036199;28;20030;-76
2023/11/27 07:14:31;;;;;;;3.58;2.33;;;0.00;99.90;;;;;;5034957;28;20021;-75
2023/11/27 07:16:57;;;;;;;5.90;2.65;;;0.00;99.90;;;;;;5035010;28;20495;-76
2023/11/27 07:19:25;;;;;;;2.47;2.13;;;0.00;99.90;;;;;;5033719;28;20025;-76
2023/11/27 07:21:51;;;;;;;7.18;3.83;;;0.00;99.90;;;;;;5035434;28;20070;-76
2023/11/27 07:24:17;;;;;;;12.48;5.45;;;0.10;99.90;;;;;;5035351;28;20045;-75
2023/11/27 07:26:43;;;;;;;13.05;4.43;;;0.10;99.90;;;;;;5035032;28;20396;-77
2023/11/27 07:29:10;;;;;;;4.50;2.40;;;0.20;99.90;;;;;;5035296;28;20057;-82
2023/11/27 07:31:35;;;;;;;6.13;2.65;;;0.20;99.90;;;;;;5036368;28;20448;-82
2023/11/27 07:34:02;;;;;;;5.03;1.52;;;0.60;99.90;;;;;;5034181;28;20036;-82
2023/11/27 07:36:28;;;;;;;2.50;1.50;;;0.50;99.90;;;;;;5033568;28;20055;-83
2023/11/27 07:38:55;;;;;;;4.72;2.08;;;0.60;99.90;;;;;;5035248;28;20028;-82
2023/11/27 07:41:21;;;;;;;2.92;1.42;;;0.60;99.90;;;;;;5034147;28;20025;-82
2023/11/27 07:43:49;;;;;;;4.35;2.47;;;0.80;99.90;;;;;;5035942;28;20032;-82
2023/11/27 07:46:14;;;;;;;10.30;4.13;;;0.70;99.90;;;;;;5036658;28;20032;-82
2023/11/27 07:48:42;;;;;;;11.80;4.35;;;0.70;99.90;;;;;;5035844;28;20025;-82
2023/11/27 07:51:08;;;;;;;12.75;5.30;;;0.80;99.90;;;;;;5034814;28;20035;-82
2023/11/27 07:53:35;;;;;;;13.38;5.32;;;0.80;99.90;;;;;;5034872;28;20080;-82
2023/11/27 07:56:00;;;;;;;10.02;4.93;;;0.90;99.90;;;;;;5034492;28;20037;-81
2023/11/27 07:58:27;;;;;;;9.07;4.55;;;0.90;99.90;;;;;;5051346;28;20030;-82
2023/11/27 08:00:52;;;;;;;8.57;5.63;;;1.00;99.90;;;;;;5036084;28;20547;-82
2023/11/27 08:03:18;;;;;;;6.40;3.78;;;1.10;99.90;;;;;;5037075;28;20063;-81
2023/11/27 08:05:44;;;;;;;4.85;3.17;;;1.10;99.90;;;;;;5039557;28;20022;-82
